Terminal Aerodrome Forecast
Issued by NWS

Home | Current Version | Previous Version | Text Only | Print | Product List | Glossary On
Versions: 1 2 3 4 5 6 7 8 9 10 11 12 13 14 15 16 17 18 19 20 21 22 23 24 25 26
000
FTUS42 KCAE 230200 AAA
TAFOGB
TAF AMD
KOGB 230240Z 2303/2324 06005KT P6SM -SHRA SCT020 OVC100
      TEMPO 2303/2306 5SM -SHRA BR BKN020
     FM230800 05008KT 4SM BR OVC010
     FM231800 04011KT P6SM OVC035=

USA.gov is the U.S. government's official web portal to all federal, state and local government web resources and services.